createdAt,value
2023-03-02T00:01:15.690Z,11.03
2023-03-02T00:02:48.647Z,10.67
2023-03-02T00:04:29.847Z,11.15
2023-03-02T00:06:03.247Z,11.18
2023-03-02T00:09:09.690Z,8.98
2023-03-02T00:10:42.740Z,10.68
2023-03-02T00:12:17.091Z,10.35
2023-03-02T00:13:50.003Z,10.77
2023-03-02T00:15:24.363Z,10.60
2023-03-02T00:16:57.794Z,10.43
2023-03-02T00:20:10.945Z,9.50
2023-03-02T00:21:43.874Z,9.52
2023-03-02T00:23:16.060Z,9.73
2023-03-02T00:24:48.969Z,9.77
2023-03-02T00:26:22.424Z,10.90
2023-03-02T00:29:28.213Z,9.47
2023-03-02T00:31:05.643Z,9.90
2023-03-02T00:32:37.721Z,9.45
2023-03-02T00:34:10.606Z,10.77
2023-03-02T00:35:43.586Z,9.82
2023-03-02T00:37:15.836Z,9.90
2023-03-02T00:38:49.048Z,10.33
2023-03-02T00:40:21.162Z,9.77
2023-03-02T00:41:54.019Z,10.27
2023-03-02T00:43:28.050Z,9.30
2023-03-02T00:45:01.561Z,9.57
2023-03-02T00:46:36.035Z,10.18
2023-03-02T00:48:09.412Z,9.43
2023-03-02T00:49:42.288Z,10.30
2023-03-02T00:51:16.568Z,9.52
2023-03-02T00:52:49.527Z,10.48
2023-03-02T00:54:22.553Z,9.60
2023-03-02T00:55:56.022Z,10.63
2023-03-02T00:59:06.562Z,8.93
2023-03-02T01:00:39.627Z,9.77
2023-03-02T01:02:13.987Z,9.10
2023-03-02T01:03:46.233Z,9.87
2023-03-02T01:05:19.408Z,9.45
2023-03-02T01:06:51.404Z,9.18
2023-03-02T01:08:25.163Z,9.90
2023-03-02T01:09:57.103Z,9.67
2023-03-02T01:11:29.974Z,8.98
2023-03-02T01:13:03.069Z,9.43
2023-03-02T01:14:35.888Z,9.57
2023-03-02T01:16:09.258Z,9.65
2023-03-02T01:19:17.348Z,8.45
2023-03-02T01:22:23.918Z,9.20
2023-03-02T01:23:57.109Z,9.05
2023-03-02T01:25:31.197Z,9.30
2023-03-02T01:27:04.283Z,9.80
2023-03-02T01:28:37.590Z,9.00
2023-03-02T01:30:12.227Z,9.68
2023-03-02T01:31:45.127Z,9.70
2023-03-02T01:33:19.523Z,9.70
2023-03-02T01:34:52.535Z,9.60
2023-03-02T01:36:24.519Z,9.23
2023-03-02T01:37:57.484Z,9.45
2023-03-02T01:39:29.407Z,9.07
2023-03-02T01:41:02.343Z,9.38
2023-03-02T01:42:40.925Z,10.18
2023-03-02T01:44:35.230Z,8.85
2023-03-02T01:46:13.792Z,9.23
2023-03-02T01:47:46.876Z,9.60
2023-03-02T01:49:20.421Z,9.85
2023-03-02T01:50:54.326Z,9.45
2023-03-02T01:52:28.424Z,9.40
2023-03-02T01:54:04.869Z,9.70
2023-03-02T01:55:39.630Z,9.43
2023-03-02T01:57:13.087Z,9.48
2023-03-02T02:00:23.154Z,8.25
2023-03-02T02:01:59.613Z,9.37
2023-03-02T02:03:33.209Z,9.20
2023-03-02T02:05:08.155Z,9.75
2023-03-02T02:06:43.883Z,9.50
2023-03-02T02:08:17.010Z,8.90
2023-03-02T02:09:51.494Z,9.98
2023-03-02T02:11:24.771Z,8.88
2023-03-02T02:12:57.869Z,8.90
2023-03-02T02:14:30.807Z,9.27
2023-03-02T02:16:04.614Z,8.57
2023-03-02T02:17:36.559Z,8.50
2023-03-02T02:19:16.702Z,9.15
2023-03-02T02:20:55.102Z,9.03
2023-03-02T02:22:40.506Z,10.05
2023-03-02T02:24:20.845Z,9.32
2023-03-02T02:26:31.928Z,9.82
2023-03-02T02:28:08.510Z,9.50
2023-03-02T02:29:45.798Z,10.07
2023-03-02T02:31:22.500Z,10.75
2023-03-02T02:32:56.425Z,9.60
2023-03-02T02:34:33.536Z,10.05
2023-03-02T02:36:11.330Z,9.70
2023-03-02T02:37:47.592Z,10.32
2023-03-02T02:39:23.069Z,9.75
2023-03-02T02:40:59.693Z,10.35
2023-03-02T02:42:36.859Z,10.73
2023-03-02T02:44:14.001Z,9.93
2023-03-02T02:45:48.083Z,8.82
2023-03-02T02:47:23.484Z,9.48
2023-03-02T02:48:55.807Z,9.27
2023-03-02T02:50:33.533Z,10.07
2023-03-02T02:52:07.950Z,9.38
2023-03-02T02:53:45.954Z,9.55
2023-03-02T02:55:23.989Z,9.18
2023-03-02T02:56:57.059Z,9.70
2023-03-02T02:58:35.354Z,9.73
2023-03-02T03:00:17.263Z,9.93
2023-03-02T03:01:51.396Z,10.40
2023-03-02T03:03:31.167Z,9.43
2023-03-02T03:05:04.364Z,8.53
2023-03-02T03:06:38.471Z,9.52
2023-03-02T03:08:32.169Z,9.47
2023-03-02T03:10:09.772Z,9.02
2023-03-02T03:11:46.015Z,9.23
2023-03-02T03:13:18.012Z,10.15
2023-03-02T03:14:53.867Z,9.93
2023-03-02T03:16:29.005Z,9.53
2023-03-02T03:18:01.910Z,10.27
2023-03-02T03:19:34.835Z,9.98
2023-03-02T03:21:06.887Z,9.82
2023-03-02T03:22:39.896Z,9.63
2023-03-02T03:24:12.960Z,8.45
2023-03-02T03:25:45.928Z,9.40
2023-03-02T03:27:18.868Z,10.00
2023-03-02T03:28:51.832Z,9.10
2023-03-02T03:30:26.091Z,9.10
2023-03-02T03:32:00.607Z,9.17
2023-03-02T03:33:32.603Z,9.80
2023-03-02T03:35:08.584Z,10.00
2023-03-02T03:36:43.272Z,9.82
2023-03-02T03:38:15.235Z,10.40
2023-03-02T03:39:48.775Z,9.67
2023-03-02T03:41:21.730Z,9.83
2023-03-02T03:42:54.653Z,9.50
2023-03-02T03:44:27.553Z,10.00
2023-03-02T03:46:02.044Z,10.40
2023-03-02T03:47:34.975Z,9.23
2023-03-02T03:49:07.989Z,9.73
2023-03-02T03:50:40.895Z,9.93
2023-03-02T03:52:13.801Z,9.75
2023-03-02T03:53:46.859Z,10.20
2023-03-02T03:55:20.259Z,10.10
2023-03-02T03:58:25.547Z,9.90
2023-03-02T03:59:58.568Z,10.15
2023-03-02T04:01:34.932Z,9.65
2023-03-02T04:03:07.969Z,10.10
2023-03-02T04:04:41.184Z,10.02
2023-03-02T04:06:18.907Z,9.50
2023-03-02T04:07:51.959Z,9.82
2023-03-02T04:09:25.658Z,10.85
2023-03-02T04:10:58.620Z,10.32
2023-03-02T04:12:31.906Z,10.20
2023-03-02T04:14:05.332Z,10.07
2023-03-02T04:17:12.665Z,9.60
2023-03-02T04:18:44.608Z,10.32
2023-03-02T04:20:18.530Z,10.02
2023-03-02T04:21:53.359Z,9.60
2023-03-02T04:23:26.366Z,9.67
2023-03-02T04:24:59.245Z,10.68
2023-03-02T04:26:32.563Z,9.65
2023-03-02T04:28:06.032Z,10.70
2023-03-02T04:29:38.155Z,10.05
2023-03-02T04:31:11.233Z,10.30
2023-03-02T04:32:44.659Z,10.45
2023-03-02T04:35:50.829Z,9.83
2023-03-02T04:38:55.696Z,9.25
2023-03-02T04:40:28.126Z,10.05
2023-03-02T04:42:01.049Z,9.97
2023-03-02T04:43:34.168Z,9.48
2023-03-02T04:45:07.460Z,9.75
2023-03-02T04:46:42.898Z,9.45
2023-03-02T04:48:19.087Z,9.82
2023-03-02T04:49:54.693Z,9.32
2023-03-02T04:51:30.919Z,9.95
2023-03-02T04:53:04.126Z,10.15
2023-03-02T04:54:37.047Z,10.82
2023-03-02T04:56:10.145Z,10.35
2023-03-02T04:57:42.042Z,11.00
2023-03-02T04:59:15.112Z,10.10
2023-03-02T05:00:48.381Z,10.65
2023-03-02T05:02:20.421Z,10.80
2023-03-02T05:03:54.831Z,10.68
2023-03-02T05:05:29.473Z,11.50
2023-03-02T05:07:01.423Z,11.32
2023-03-02T05:08:35.002Z,10.88
2023-03-02T05:10:08.161Z,10.35
2023-03-02T05:11:41.582Z,10.15
2023-03-02T05:14:47.271Z,10.52
2023-03-02T05:16:20.398Z,11.52
2023-03-02T05:17:53.467Z,13.23
2023-03-02T05:19:28.042Z,11.23
2023-03-02T05:21:00.971Z,12.07
2023-03-02T05:22:33.885Z,10.73
2023-03-02T05:24:07.493Z,10.30
2023-03-02T05:25:40.495Z,11.13
2023-03-02T05:27:13.408Z,11.00
2023-03-02T05:28:47.460Z,11.05
2023-03-02T05:30:19.742Z,10.73
2023-03-02T05:31:52.872Z,10.60
2023-03-02T05:33:25.153Z,10.75
2023-03-02T05:34:59.490Z,10.73
2023-03-02T05:36:33.031Z,11.52
2023-03-02T05:38:06.187Z,11.32
2023-03-02T05:39:39.426Z,10.48
2023-03-02T05:41:12.500Z,10.20
2023-03-02T05:42:45.857Z,11.05
2023-03-02T05:44:18.855Z,10.30
2023-03-02T05:45:50.878Z,10.32
2023-03-02T05:47:23.967Z,11.23
2023-03-02T05:48:56.911Z,10.70
2023-03-02T05:50:30.399Z,11.20
2023-03-02T05:53:45.230Z,14.57
2023-03-02T05:55:20.179Z,11.27
2023-03-02T05:56:53.113Z,10.80
2023-03-02T05:58:25.097Z,10.65
2023-03-02T05:59:57.992Z,11.13
2023-03-02T06:01:31.417Z,10.68
2023-03-02T06:03:03.805Z,10.65
2023-03-02T06:04:43.176Z,10.23
2023-03-02T06:06:18.159Z,10.13
2023-03-02T06:07:50.269Z,10.23
2023-03-02T06:09:23.341Z,10.23
2023-03-02T06:10:57.138Z,9.98
2023-03-02T06:12:30.193Z,10.27
2023-03-02T06:14:03.127Z,10.35
2023-03-02T06:15:37.063Z,9.88
2023-03-02T06:17:10.266Z,10.95
2023-03-02T06:18:43.210Z,10.07
2023-03-02T06:20:18.332Z,10.30
2023-03-02T06:21:52.724Z,10.30
2023-03-02T06:23:25.818Z,10.82
2023-03-02T06:24:58.792Z,9.98
2023-03-02T06:26:32.176Z,10.55
2023-03-02T06:28:05.842Z,10.10
2023-03-02T06:29:41.495Z,10.40
2023-03-02T06:31:14.813Z,10.13
2023-03-02T06:34:21.031Z,9.73
2023-03-02T06:35:54.292Z,9.90
2023-03-02T06:39:03.266Z,10.18
2023-03-02T06:40:36.411Z,9.23
2023-03-02T06:42:12.493Z,10.07
2023-03-02T06:43:45.608Z,10.48
2023-03-02T06:45:18.825Z,10.25
2023-03-02T06:46:52.438Z,10.95
2023-03-02T06:48:25.644Z,10.63
2023-03-02T06:49:58.902Z,9.75
2023-03-02T06:51:32.075Z,10.77
2023-03-02T06:53:06.604Z,10.45
2023-03-02T06:54:39.786Z,10.38
2023-03-02T06:56:12.804Z,10.05
2023-03-02T06:57:45.216Z,9.15
2023-03-02T06:59:18.422Z,10.87
2023-03-02T07:00:51.707Z,10.00
2023-03-02T07:02:24.914Z,10.40
2023-03-02T07:03:58.307Z,10.02
2023-03-02T07:07:06.066Z,9.23
2023-03-02T07:08:40.958Z,9.85
2023-03-02T07:10:14.680Z,9.80
2023-03-02T07:11:47.834Z,10.45
2023-03-02T07:13:23.628Z,9.57
2023-03-02T07:14:56.835Z,10.27
2023-03-02T07:16:31.300Z,9.88
2023-03-02T07:18:04.489Z,10.23
2023-03-02T07:19:40.793Z,10.93
2023-03-02T07:21:14.305Z,11.05
2023-03-02T07:24:22.623Z,9.18
2023-03-02T07:25:56.332Z,9.90
2023-03-02T07:27:29.666Z,9.68
2023-03-02T07:30:35.890Z,9.98
2023-03-02T07:33:45.573Z,9.20
2023-03-02T07:35:19.314Z,10.68
2023-03-02T07:36:52.632Z,9.98
2023-03-02T07:38:25.965Z,10.80
2023-03-02T07:40:01.034Z,11.00
2023-03-02T07:41:34.579Z,10.60
2023-03-02T07:43:09.913Z,9.90
2023-03-02T07:44:43.447Z,10.23
2023-03-02T07:46:16.578Z,10.25
2023-03-02T07:47:49.846Z,10.45
2023-03-02T07:49:23.270Z,9.65
2023-03-02T07:52:32.108Z,9.93
2023-03-02T07:54:08.086Z,8.98
2023-03-02T07:55:46.086Z,10.07
2023-03-02T07:57:19.235Z,9.82
2023-03-02T07:58:52.451Z,10.18
2023-03-02T08:00:28.469Z,10.98
2023-03-02T08:02:01.755Z,10.32
2023-03-02T08:03:34.992Z,9.50
2023-03-02T08:05:12.088Z,10.25
2023-03-02T08:06:45.147Z,11.05
2023-03-02T08:08:18.473Z,10.63
2023-03-02T08:09:51.642Z,10.25
2023-03-02T08:11:25.990Z,10.85
2023-03-02T08:12:59.267Z,10.15
2023-03-02T08:14:32.587Z,9.82
2023-03-02T08:17:39.516Z,9.35
2023-03-02T08:19:12.906Z,8.68
2023-03-02T08:22:18.641Z,9.07
2023-03-02T08:23:52.003Z,10.68
2023-03-02T08:27:01.194Z,10.05
2023-03-02T08:28:34.948Z,10.90
2023-03-02T08:30:10.699Z,10.23
2023-03-02T08:31:43.683Z,10.55
2023-03-02T08:33:16.707Z,10.82
2023-03-02T08:34:51.712Z,10.27
2023-03-02T08:36:24.640Z,10.10
2023-03-02T08:37:59.624Z,10.15
2023-03-02T08:39:33.173Z,10.45
2023-03-02T08:41:07.818Z,10.52
2023-03-02T08:42:42.089Z,10.35
2023-03-02T08:44:15.012Z,9.88
2023-03-02T08:45:52.583Z,10.75
2023-03-02T08:47:25.664Z,10.38
2023-03-02T08:48:58.579Z,10.10
2023-03-02T08:50:31.508Z,10.60
2023-03-02T08:52:05.156Z,10.27
2023-03-02T08:53:40.045Z,10.05
2023-03-02T08:55:13.980Z,9.30
2023-03-02T08:56:47.041Z,11.45
2023-03-02T08:58:21.411Z,10.38
2023-03-02T08:59:54.451Z,10.32
2023-03-02T09:04:48.101Z,10.93
2023-03-02T09:06:21.644Z,10.52
2023-03-02T09:07:54.602Z,11.25
2023-03-02T09:09:27.452Z,10.95
2023-03-02T09:11:00.360Z,10.85
2023-03-02T09:12:33.260Z,9.95
2023-03-02T09:14:07.470Z,11.45
2023-03-02T09:15:40.300Z,10.75
2023-03-02T09:17:15.496Z,10.73
2023-03-02T09:18:48.847Z,9.77
2023-03-02T09:21:54.530Z,10.25
2023-03-02T09:23:28.935Z,10.20
2023-03-02T09:25:01.831Z,9.85
2023-03-02T09:26:35.018Z,9.98
2023-03-02T09:28:08.085Z,11.20
2023-03-02T09:29:42.660Z,10.15
2023-03-02T09:31:15.776Z,10.13
2023-03-02T09:32:49.090Z,10.85
2023-03-02T09:35:55.258Z,9.57
2023-03-02T09:37:29.287Z,9.82
2023-03-02T09:39:08.372Z,9.40
2023-03-02T09:40:52.053Z,9.07
2023-03-02T09:42:44.150Z,9.75
2023-03-02T09:44:43.724Z,10.00
2023-03-02T09:46:21.782Z,9.70
2023-03-02T09:48:06.400Z,9.68
2023-03-02T09:49:55.442Z,9.00
2023-03-02T09:51:35.025Z,9.25
2023-03-02T09:53:25.776Z,9.65
2023-03-02T09:55:02.574Z,9.95
2023-03-02T09:56:38.908Z,9.68
2023-03-02T09:58:17.164Z,9.23
2023-03-02T09:59:55.570Z,9.95
2023-03-02T10:01:39.445Z,9.43
2023-03-02T10:04:54.411Z,9.45
2023-03-02T10:06:27.615Z,8.52
2023-03-02T10:08:00.769Z,9.45
2023-03-02T10:09:33.785Z,9.20
2023-03-02T10:11:14.380Z,9.65
2023-03-02T10:13:02.089Z,10.25
2023-03-02T10:14:40.237Z,9.45
2023-03-02T10:16:27.027Z,9.57
2023-03-02T10:18:11.853Z,10.32
2023-03-02T10:19:48.887Z,8.77
2023-03-02T10:21:27.965Z,10.25
2023-03-02T10:23:09.651Z,9.45
2023-03-02T10:24:52.161Z,9.93
2023-03-02T10:26:38.671Z,9.45
2023-03-02T10:28:19.142Z,9.32
2023-03-02T10:29:59.605Z,11.10
2023-03-02T10:31:34.588Z,10.02
2023-03-02T10:33:15.927Z,10.25
2023-03-02T10:34:50.074Z,10.18
2023-03-02T10:36:25.611Z,9.18
2023-03-02T10:38:01.574Z,9.75
2023-03-02T10:39:34.596Z,10.13
2023-03-02T10:41:15.349Z,8.90
2023-03-02T10:42:48.628Z,9.73
2023-03-02T10:44:24.518Z,8.90
2023-03-02T10:46:02.264Z,9.68
2023-03-02T10:47:35.354Z,9.48
2023-03-02T10:49:25.925Z,9.20
2023-03-02T10:51:00.353Z,9.00
2023-03-02T10:52:33.373Z,8.73
2023-03-02T10:54:08.551Z,8.68
2023-03-02T10:55:46.897Z,8.68
2023-03-02T10:57:30.169Z,8.80
2023-03-02T10:59:16.618Z,8.48
2023-03-02T11:00:58.096Z,8.82
2023-03-02T11:02:34.910Z,8.68
2023-03-02T11:04:16.350Z,8.70
2023-03-02T11:05:50.953Z,8.95
2023-03-02T11:07:25.780Z,8.38
2023-03-02T11:09:04.250Z,8.50
2023-03-02T11:10:38.821Z,8.77
2023-03-02T11:12:17.346Z,8.38
2023-03-02T11:13:50.427Z,8.38
2023-03-02T11:15:26.499Z,8.82
2023-03-02T11:17:03.351Z,7.57
2023-03-02T11:18:41.014Z,8.23
2023-03-02T11:20:18.764Z,8.18
2023-03-02T11:22:01.344Z,8.18
2023-03-02T11:23:42.020Z,8.07
2023-03-02T11:25:23.619Z,7.53
2023-03-02T11:27:00.569Z,7.15
2023-03-02T11:28:41.495Z,7.50
2023-03-02T11:30:18.450Z,7.63
2023-03-02T11:31:54.520Z,7.47
2023-03-02T11:33:34.225Z,7.43
2023-03-02T11:35:14.766Z,7.78
2023-03-02T11:36:59.237Z,8.27
2023-03-02T11:38:37.872Z,7.90
2023-03-02T11:40:22.491Z,7.28
2023-03-02T11:41:55.428Z,7.38
2023-03-02T11:43:28.353Z,8.02
2023-03-02T11:45:04.918Z,7.28
2023-03-02T11:46:37.945Z,7.57
2023-03-02T11:48:18.784Z,6.80
2023-03-02T11:49:55.860Z,6.68
2023-03-02T11:51:34.417Z,7.40
2023-03-02T11:53:15.385Z,6.82
2023-03-02T11:54:54.653Z,7.05
2023-03-02T11:56:31.558Z,7.55
2023-03-02T11:58:05.941Z,6.70
2023-03-02T11:59:39.521Z,6.97
2023-03-02T12:01:19.190Z,6.72
2023-03-02T12:03:03.068Z,6.60
2023-03-02T12:06:35.597Z,6.03
2023-03-02T12:08:34.566Z,6.93
2023-03-02T12:10:10.209Z,6.13
2023-03-02T12:11:46.759Z,6.30
2023-03-02T12:13:22.079Z,6.07
2023-03-02T12:14:55.069Z,6.03
2023-03-02T12:16:37.057Z,5.80
2023-03-02T12:18:30.129Z,6.53
2023-03-02T12:20:26.959Z,6.30
2023-03-02T12:22:02.114Z,7.55
2023-03-02T12:23:42.047Z,6.35
2023-03-02T12:25:28.715Z,6.15
2023-03-02T12:27:04.785Z,6.00
2023-03-02T12:28:40.694Z,5.90
2023-03-02T12:30:26.492Z,6.97
2023-03-02T12:31:59.569Z,6.50
2023-03-02T12:33:32.774Z,6.50
2023-03-02T12:35:12.675Z,7.30
2023-03-02T12:36:46.169Z,6.07
2023-03-02T12:38:29.598Z,5.43
2023-03-02T12:40:29.575Z,6.55
2023-03-02T12:42:30.698Z,5.88
2023-03-02T12:44:18.072Z,5.78
2023-03-02T12:46:06.762Z,6.15
2023-03-02T12:47:43.303Z,5.90
2023-03-02T12:49:28.318Z,8.40
2023-03-02T12:51:03.483Z,6.90
2023-03-02T12:52:37.940Z,5.72
2023-03-02T12:54:15.477Z,6.88
2023-03-02T12:55:49.774Z,6.65
2023-03-02T12:57:22.747Z,6.95
2023-03-02T12:58:56.190Z,6.20
2023-03-02T13:00:32.243Z,7.05
2023-03-02T13:02:07.155Z,6.15
2023-03-02T13:03:48.736Z,6.93
2023-03-02T13:05:24.292Z,6.40
2023-03-02T13:06:57.706Z,6.00
2023-03-02T13:10:09.513Z,6.95
2023-03-02T13:11:44.604Z,6.47
2023-03-02T13:13:19.638Z,6.43
2023-03-02T13:14:55.853Z,7.03
2023-03-02T13:16:31.562Z,6.35
2023-03-02T13:18:05.072Z,6.85
2023-03-02T13:19:38.727Z,6.25
2023-03-02T13:21:14.753Z,6.63
2023-03-02T13:22:47.772Z,6.28
2023-03-02T13:24:37.647Z,5.50
2023-03-02T13:26:26.760Z,8.50
2023-03-02T13:28:07.399Z,6.15
2023-03-02T13:29:40.432Z,5.93
2023-03-02T13:31:21.163Z,6.70
2023-03-02T13:33:00.817Z,6.50
2023-03-02T13:34:50.385Z,6.22
2023-03-02T13:36:26.906Z,5.53
2023-03-02T13:38:03.364Z,6.03
2023-03-02T13:39:36.298Z,6.88
2023-03-02T13:41:10.858Z,6.22
2023-03-02T13:42:43.972Z,6.03
2023-03-02T13:44:21.441Z,6.18
2023-03-02T13:45:57.113Z,6.68
2023-03-02T13:47:29.998Z,6.80
2023-03-02T13:49:10.644Z,7.53
2023-03-02T13:50:53.134Z,6.53
2023-03-02T13:52:30.500Z,6.28
2023-03-02T13:54:05.765Z,5.90
2023-03-02T13:55:41.274Z,5.43
2023-03-02T13:57:17.617Z,5.78
2023-03-02T13:58:50.548Z,7.32
2023-03-02T14:00:31.412Z,6.03
2023-03-02T14:02:04.359Z,6.07
2023-03-02T14:03:37.255Z,6.43
2023-03-02T14:05:19.875Z,6.30
2023-03-02T14:06:53.918Z,6.68
2023-03-02T14:08:27.370Z,7.15
2023-03-02T14:10:00.220Z,5.70
2023-03-02T14:11:37.389Z,6.40
2023-03-02T14:13:16.047Z,5.72
2023-03-02T14:14:49.048Z,5.88
2023-03-02T14:16:24.272Z,5.53
2023-03-02T14:17:57.246Z,5.97
2023-03-02T14:19:30.188Z,6.82
2023-03-02T14:21:03.146Z,6.00
2023-03-02T14:22:36.193Z,5.97
2023-03-02T14:24:09.218Z,6.07
2023-03-02T14:25:42.163Z,5.75
2023-03-02T14:27:16.317Z,6.57
2023-03-02T14:28:56.523Z,6.22
2023-03-02T14:30:36.437Z,5.72
2023-03-02T14:32:13.644Z,6.10
2023-03-02T14:33:46.653Z,6.25
2023-03-02T14:35:19.606Z,5.55
2023-03-02T14:36:55.461Z,5.93
2023-03-02T14:38:28.808Z,5.55
2023-03-02T14:41:51.221Z,6.03
2023-03-02T14:43:26.265Z,5.50
2023-03-02T14:44:59.953Z,5.65
2023-03-02T14:46:33.007Z,6.38
2023-03-02T14:48:07.363Z,5.20
2023-03-02T14:49:40.939Z,6.05
2023-03-02T14:51:21.795Z,5.82
2023-03-02T14:52:56.717Z,6.57
2023-03-02T14:54:37.080Z,6.70
2023-03-02T14:56:12.725Z,6.40
2023-03-02T14:57:45.733Z,5.72
2023-03-02T14:59:18.781Z,6.07
2023-03-02T15:00:51.661Z,6.80
2023-03-02T15:02:26.904Z,6.28
2023-03-02T15:04:01.382Z,5.97
2023-03-02T15:05:34.302Z,5.80
2023-03-02T15:07:07.244Z,5.80
2023-03-02T15:08:40.128Z,6.40
2023-03-02T15:10:16.508Z,6.68
2023-03-02T15:11:49.435Z,5.65
2023-03-02T15:13:22.331Z,4.93
2023-03-02T15:14:55.301Z,4.88
2023-03-02T15:16:28.218Z,5.68
2023-03-02T15:18:01.164Z,6.18
2023-03-02T15:19:39.043Z,6.03
2023-03-02T15:21:16.514Z,6.00
2023-03-02T15:22:49.422Z,6.15
2023-03-02T15:24:23.486Z,5.80
2023-03-02T15:26:00.614Z,6.38
2023-03-02T15:27:33.537Z,6.15
2023-03-02T15:29:06.878Z,5.75
2023-03-02T15:32:15.045Z,5.82
2023-03-02T15:33:48.391Z,6.15
2023-03-02T15:36:55.399Z,5.78
2023-03-02T15:38:28.885Z,5.95
2023-03-02T15:40:01.792Z,5.07
2023-03-02T15:41:35.229Z,5.78
2023-03-02T15:43:08.352Z,5.47
2023-03-02T15:44:41.305Z,5.50
2023-03-02T15:46:14.241Z,5.20
2023-03-02T15:47:47.295Z,5.07
2023-03-02T15:49:22.827Z,5.35
2023-03-02T15:51:02.352Z,4.85
2023-03-02T15:52:35.215Z,5.65
2023-03-02T15:54:10.775Z,5.28
2023-03-02T15:55:43.772Z,5.70
2023-03-02T15:57:17.517Z,5.50
2023-03-02T15:58:51.110Z,6.00
2023-03-02T16:00:24.645Z,6.28
2023-03-02T16:01:59.526Z,5.03
2023-03-02T16:03:32.788Z,6.10
2023-03-02T16:05:06.710Z,5.55
2023-03-02T16:06:41.266Z,4.88
2023-03-02T16:08:14.231Z,5.18
2023-03-02T16:09:47.274Z,5.75
2023-03-02T16:11:23.270Z,5.50
2023-03-02T16:12:56.357Z,5.07
2023-03-02T16:14:29.259Z,5.65
2023-03-02T16:16:03.217Z,5.20
2023-03-02T16:17:36.344Z,5.57
2023-03-02T16:19:12.667Z,5.38
2023-03-02T16:20:45.758Z,5.40
2023-03-02T16:22:20.170Z,5.95
2023-03-02T16:23:53.236Z,5.97
2023-03-02T16:25:26.285Z,5.68
2023-03-02T16:26:59.493Z,6.43
2023-03-02T16:28:32.520Z,6.38
2023-03-02T16:30:06.363Z,6.20
2023-03-02T16:31:40.312Z,6.40
2023-03-02T16:33:16.398Z,6.00
2023-03-02T16:34:49.550Z,5.88
2023-03-02T16:36:23.309Z,5.57
2023-03-02T16:37:57.928Z,6.10
2023-03-02T16:39:32.489Z,5.90
2023-03-02T16:41:06.345Z,5.80
2023-03-02T16:42:39.243Z,5.53
2023-03-02T16:44:13.418Z,6.55
2023-03-02T16:45:47.565Z,6.45
2023-03-02T16:47:20.507Z,5.72
2023-03-02T16:48:53.835Z,6.82
2023-03-02T16:50:26.817Z,6.00
2023-03-02T16:52:00.652Z,6.57
2023-03-02T16:53:35.071Z,6.80
2023-03-02T16:55:13.031Z,6.75
2023-03-02T16:56:47.305Z,6.85
2023-03-02T16:58:20.610Z,6.70
2023-03-02T16:59:58.303Z,6.35
2023-03-02T17:01:31.525Z,6.00
2023-03-02T17:03:10.141Z,6.63
2023-03-02T17:04:43.444Z,6.38
2023-03-02T17:07:51.044Z,5.95
2023-03-02T17:09:25.561Z,6.40
2023-03-02T17:10:58.852Z,6.47
2023-03-02T17:12:35.468Z,7.35
2023-03-02T17:14:09.395Z,7.07
2023-03-02T17:15:42.460Z,7.28
2023-03-02T17:17:16.274Z,6.90
2023-03-02T17:18:52.281Z,6.78
2023-03-02T17:20:25.412Z,7.57
2023-03-02T17:21:58.971Z,7.15
2023-03-02T17:23:32.268Z,7.05
2023-03-02T17:25:07.275Z,7.05
2023-03-02T17:26:40.169Z,7.43
2023-03-02T17:28:14.978Z,6.82
2023-03-02T17:29:47.913Z,7.30
2023-03-02T17:31:20.986Z,7.15
2023-03-02T17:32:53.977Z,6.65
2023-03-02T17:34:30.578Z,7.45
2023-03-02T17:36:07.168Z,6.90
2023-03-02T17:37:40.528Z,7.40
2023-03-02T17:40:47.685Z,6.55
2023-03-02T17:42:20.797Z,6.78
2023-03-02T17:43:53.782Z,7.45
2023-03-02T17:45:28.526Z,7.97
2023-03-02T17:47:03.810Z,8.25
2023-03-02T17:48:36.717Z,7.45
2023-03-02T17:50:11.210Z,7.95
2023-03-02T17:51:44.144Z,7.60
2023-03-02T17:53:17.078Z,7.15
2023-03-02T17:54:51.829Z,7.97
2023-03-02T17:56:28.929Z,7.38
2023-03-02T17:58:01.991Z,7.75
2023-03-02T17:59:35.012Z,7.93
2023-03-02T18:01:08.646Z,8.27
2023-03-02T18:02:41.587Z,8.35
2023-03-02T18:04:14.669Z,8.10
2023-03-02T18:05:47.642Z,8.98
2023-03-02T18:07:20.502Z,7.93
2023-03-02T18:08:53.908Z,8.30
2023-03-02T18:12:02.574Z,10.85
2023-03-02T18:13:35.535Z,9.52
2023-03-02T18:15:09.722Z,9.20
2023-03-02T18:16:42.085Z,9.48
2023-03-02T18:18:15.498Z,9.18
2023-03-02T18:19:49.842Z,8.00
2023-03-02T18:21:23.291Z,8.60
2023-03-02T18:22:57.177Z,8.45
2023-03-02T18:24:30.065Z,9.02
2023-03-02T18:26:03.000Z,7.50
2023-03-02T18:27:37.355Z,8.43
2023-03-02T18:29:10.318Z,7.95
2023-03-02T18:30:43.651Z,8.05
2023-03-02T18:32:16.847Z,8.02
2023-03-02T18:33:50.097Z,7.63
2023-03-02T18:35:23.414Z,7.50
2023-03-02T18:38:30.954Z,8.13
2023-03-02T18:40:06.458Z,8.38
2023-03-02T18:41:39.548Z,9.57
2023-03-02T18:43:13.825Z,9.60
2023-03-02T18:44:46.817Z,9.45
2023-03-02T18:46:22.134Z,9.55
2023-03-02T18:47:55.644Z,9.70
2023-03-02T18:49:28.866Z,11.38
2023-03-02T18:51:02.005Z,11.50
2023-03-02T18:52:35.008Z,10.63
2023-03-02T18:54:08.014Z,9.70
2023-03-02T18:55:41.350Z,10.07
2023-03-02T18:57:14.616Z,8.82
2023-03-02T18:58:49.701Z,9.93
2023-03-02T19:00:27.899Z,8.57
2023-03-02T19:02:01.422Z,8.82
2023-03-02T19:05:10.708Z,9.07
2023-03-02T19:06:44.137Z,8.20
2023-03-02T19:09:49.767Z,9.52
2023-03-02T19:11:23.056Z,9.55
2023-03-02T19:12:56.019Z,10.13
2023-03-02T19:14:30.332Z,9.52
2023-03-02T19:16:03.477Z,10.50
2023-03-02T19:17:36.598Z,10.38
2023-03-02T19:19:09.468Z,10.80
2023-03-02T19:20:42.489Z,10.48
2023-03-02T19:22:16.607Z,10.45
2023-03-02T19:23:49.505Z,10.00
2023-03-02T19:25:24.383Z,10.07
2023-03-02T19:26:57.988Z,10.63
2023-03-02T19:28:31.569Z,10.45
2023-03-02T19:30:06.793Z,9.93
2023-03-02T19:31:40.181Z,10.07
2023-03-02T19:34:45.928Z,9.98
2023-03-02T19:36:18.833Z,10.13
2023-03-02T19:37:51.855Z,9.25
2023-03-02T19:39:24.772Z,9.77
2023-03-02T19:40:59.010Z,8.88
2023-03-02T19:42:34.793Z,9.40
2023-03-02T19:44:08.360Z,9.30
2023-03-02T19:45:42.839Z,10.07
2023-03-02T19:47:15.762Z,8.82
2023-03-02T19:48:49.011Z,9.73
2023-03-02T19:50:22.708Z,9.25
2023-03-02T19:51:55.827Z,9.55
2023-03-02T19:53:28.790Z,9.40
2023-03-02T19:55:01.839Z,10.35
2023-03-02T19:56:39.503Z,9.48
2023-03-02T19:58:16.859Z,9.07
2023-03-02T19:59:49.792Z,9.43
2023-03-02T20:01:25.747Z,10.32
2023-03-02T20:02:59.239Z,9.57
2023-03-02T20:04:32.576Z,9.25
2023-03-02T20:07:41.625Z,8.15
2023-03-02T20:09:19.589Z,8.63
2023-03-02T20:10:53.153Z,8.70
2023-03-02T20:12:26.507Z,8.40
2023-03-02T20:15:38.968Z,8.00
2023-03-02T20:17:13.335Z,8.10
2023-03-02T20:18:46.539Z,8.60
2023-03-02T20:20:19.535Z,8.90
2023-03-02T20:21:52.488Z,8.77
2023-03-02T20:23:25.474Z,9.05
2023-03-02T20:24:58.402Z,8.38
2023-03-02T20:26:31.781Z,8.95
2023-03-02T20:29:43.283Z,8.55
2023-03-02T20:31:17.298Z,9.10
2023-03-02T20:32:51.905Z,9.52
2023-03-02T20:34:25.052Z,9.88
2023-03-02T20:36:00.670Z,10.10
2023-03-02T20:37:33.873Z,9.50
2023-03-02T20:39:11.249Z,9.05
2023-03-02T20:40:44.360Z,8.35
2023-03-02T20:42:17.366Z,9.02
2023-03-02T20:43:50.530Z,9.10
2023-03-02T20:45:23.533Z,9.50
2023-03-02T20:46:59.030Z,9.02
2023-03-02T20:48:33.366Z,8.43
2023-03-02T20:50:06.653Z,8.80
2023-03-02T20:51:41.947Z,8.93
2023-03-02T20:53:15.584Z,9.48
2023-03-02T20:54:48.642Z,9.43
2023-03-02T20:56:22.330Z,9.43
2023-03-02T20:57:55.314Z,9.05
2023-03-02T20:59:29.129Z,10.07
2023-03-02T21:01:02.161Z,9.35
2023-03-02T21:02:35.566Z,9.30
2023-03-02T21:04:09.908Z,9.13
2023-03-02T21:05:43.907Z,9.00
2023-03-02T21:07:17.034Z,10.05
2023-03-02T21:08:50.328Z,10.07
2023-03-02T21:10:27.766Z,10.10
2023-03-02T21:12:00.767Z,9.48
2023-03-02T21:13:34.038Z,9.90
2023-03-02T21:15:08.021Z,10.13
2023-03-02T21:16:43.219Z,9.63
2023-03-02T21:18:16.270Z,9.45
2023-03-02T21:19:50.546Z,10.00
2023-03-02T21:21:40.413Z,10.40
2023-03-02T21:23:15.002Z,10.60
2023-03-02T21:24:47.923Z,10.27
2023-03-02T21:27:51.470Z,10.45
2023-03-02T21:29:26.691Z,10.48
2023-03-02T21:30:59.634Z,10.93
2023-03-02T21:32:32.762Z,10.75
2023-03-02T21:34:05.622Z,11.15
2023-03-02T21:35:40.111Z,10.68
2023-03-02T21:37:13.011Z,11.18
2023-03-02T21:38:45.925Z,10.82
2023-03-02T21:40:23.132Z,11.20
2023-03-02T21:41:56.042Z,10.23
2023-03-02T21:43:28.962Z,11.00
2023-03-02T21:45:02.015Z,10.52
2023-03-02T21:46:36.899Z,11.02
2023-03-02T21:48:10.181Z,11.02
2023-03-02T21:49:43.072Z,11.15
2023-03-02T21:51:17.907Z,11.43
2023-03-02T21:52:51.407Z,11.75
2023-03-02T21:54:24.263Z,11.02
2023-03-02T21:55:56.243Z,11.63
2023-03-02T21:57:29.117Z,11.48
2023-03-02T21:59:02.257Z,11.00
2023-03-02T22:00:38.507Z,11.75
2023-03-02T22:02:12.065Z,11.38
2023-03-02T22:03:44.800Z,11.27